Time;durP1;ratioP1;P1;durP2;ratioP2;P2;SDS_P1;SDS_P2;PMS_P1;PMS_P2;Temp;Humidity;BMP_temperature;BMP_pressure;BME280_temperature;BME280_humidity;BME280_pressure;Samples;Min_cycle;Max_cycle;Signal;HPM_P1;HPM_P2
2023/10/30 05:36:52;;;;;;;18.80;10.60;;;;;;;8.16;100.00;100476.94;107383;1276;22536;-48
2023/10/30 05:39:19;;;;;;;17.20;10.10;;;;;;;8.23;100.00;100477.20;111140;1260;22567;-46
2023/10/30 05:41:46;;;;;;;16.40;9.50;;;;;;;8.31;100.00;100477.64;110533;1255;23116;-46
2023/10/30 05:44:12;;;;;;;16.10;9.00;;;;;;;8.39;100.00;100477.08;112876;1241;22327;-47
2023/10/30 05:46:39;;;;;;;16.30;9.80;;;;;;;8.46;100.00;100475.23;112839;1241;22891;-46
2023/10/30 05:49:06;;;;;;;15.90;9.90;;;;;;;8.53;100.00;100477.06;112791;1241;23057;-48
2023/10/30 05:51:33;;;;;;;17.40;9.60;;;;;;;8.62;100.00;100476.64;112854;1239;22380;-53
2023/10/30 05:53:59;;;;;;;16.00;9.40;;;;;;;8.70;100.00;100477.23;112831;1240;22337;-45
2023/10/30 05:56:26;;;;;;;15.80;9.20;;;;;;;8.78;100.00;100479.41;112843;1239;22400;-46
2023/10/30 05:58:53;;;;;;;16.10;9.70;;;;;;;8.86;100.00;100479.49;111886;1241;22534;-47
2023/10/30 06:01:20;;;;;;;15.10;8.90;;;;;;;8.96;100.00;100480.98;112796;1249;22253;-47
2023/10/30 06:03:47;;;;;;;17.30;9.60;;;;;;;9.05;100.00;100480.55;112556;1238;22411;-48
2023/10/30 06:06:14;;;;;;;16.90;9.30;;;;;;;9.14;100.00;100480.63;112824;1250;23228;-55
2023/10/30 06:08:40;;;;;;;15.40;9.70;;;;;;;9.22;100.00;100475.46;112810;1242;22337;-47
2023/10/30 06:11:07;;;;;;;14.00;9.10;;;;;;;9.29;100.00;100478.33;112777;1249;23209;-55
2023/10/30 06:13:35;;;;;;;14.40;9.40;;;;;;;9.35;100.00;100479.05;112834;1244;23020;-46
2023/10/30 06:16:02;;;;;;;15.60;9.90;;;;;;;9.42;100.00;100480.16;112121;1246;22561;-52
2023/10/30 06:18:31;;;;;;;14.00;8.70;;;;;;;9.49;100.00;100477.77;112453;1250;22501;-53
2023/10/30 06:21:07;;;;;;;15.30;9.10;;;;;;;9.56;100.00;100476.44;112062;1250;22496;-47
2023/10/30 06:23:41;;;;;;;12.20;8.50;;;;;;;9.64;100.00;100481.36;111428;1250;24835;-53
2023/10/30 06:26:17;;;;;;;17.40;8.50;;;;;;;9.71;100.00;100480.89;111951;1250;22484;-46
2023/10/30 06:28:49;;;;;;;11.60;7.10;;;;;;;9.81;100.00;100478.67;111383;1242;22479;-46
2023/10/30 06:31:24;;;;;;;12.50;7.20;;;;;;;9.95;100.00;100475.27;112230;1250;23470;-53
2023/10/30 06:33:52;;;;;;;13.90;7.50;;;;;;;10.09;100.00;100469.59;111111;1248;22566;-47
2023/10/30 06:36:18;;;;;;;8.80;5.90;;;;;;;10.26;100.00;100465.33;112134;1246;22928;-54
2023/10/30 06:38:46;;;;;;;9.60;6.30;;;;;;;10.45;100.00;100462.10;112522;1250;25386;-47
2023/10/30 06:41:21;;;;;;;8.80;6.80;;;;;;;10.64;100.00;100463.71;112662;1247;22452;-54
2023/10/30 06:43:48;;;;;;;10.80;5.70;;;;;;;10.83;100.00;100471.63;111444;1250;22444;-45
2023/10/30 06:46:15;;;;;;;8.20;5.80;;;;;;;11.02;100.00;100472.16;111986;1250;22455;-47
2023/10/30 06:48:43;;;;;;;7.20;5.70;;;;;;;11.21;100.00;100466.58;112132;1247;22534;-48
2023/10/30 06:51:12;;;;;;;7.80;5.40;;;;;;;11.39;100.00;100468.15;111883;1239;25261;-56
2023/10/30 06:53:45;;;;;;;7.20;4.80;;;;;;;11.58;100.00;100462.02;111519;1244;22530;-46
2023/10/30 06:56:38;;;;;;;7.90;5.50;;;;;;;11.78;100.00;100463.39;111867;1244;22187;-53
2023/10/30 06:59:14;;;;;;;6.60;4.00;;;;;;;12.02;100.00;100462.13;111958;1250;22409;-47
2023/10/30 07:02:08;;;;;;;9.20;4.50;;;;;;;12.22;100.00;100466.42;111918;1250;22525;-53
2023/10/30 07:04:46;;;;;;;6.50;5.00;;;;;;;12.43;100.00;100464.41;111699;1250;22751;-46
2023/10/30 07:07:17;;;;;;;7.10;5.20;;;;;;;12.60;100.00;100466.25;111991;1250;24120;-49
2023/10/30 07:09:44;;;;;;;7.50;4.90;;;;;;;12.73;100.00;100464.95;112612;1239;22459;-45
2023/10/30 07:12:11;;;;;;;8.20;5.70;;;;;;;12.87;100.00;100462.92;112054;1250;23239;-53
2023/10/30 07:14:44;;;;;;;8.10;7.00;;;;;;;13.00;100.00;100462.13;112319;1250;22482;-55
2023/10/30 07:17:17;;;;;;;6.20;5.30;;;;;;;13.16;100.00;100460.27;112600;1250;23139;-47
2023/10/30 07:20:10;;;;;;;5.50;4.80;;;;;;;13.34;100.00;100459.80;111120;1243;22935;-48
2023/10/30 07:22:43;;;;;;;5.20;4.70;;;;;;;13.48;100.00;100458.96;111682;1240;22510;-47
2023/10/30 07:25:22;;;;;;;6.30;5.60;;;;;;;13.63;100.00;100459.52;111662;1240;25238;-46
2023/10/30 07:27:51;;;;;;;11.30;7.00;;;;;;;13.76;100.00;100451.16;112312;1250;22438;-51
2023/10/30 07:30:30;;;;;;;12.20;8.30;;;;;;;13.91;100.00;100454.32;112456;1242;22249;-46
2023/10/30 07:32:58;;;;;;;12.20;8.20;;;;;;;14.08;100.00;100453.42;112368;1248;23375;-54
2023/10/30 07:35:25;;;;;;;11.80;8.10;;;;;;;14.24;100.00;100449.55;112350;1246;22577;-45
2023/10/30 07:37:52;;;;;;;10.80;8.30;;;;;;;14.39;100.00;100452.34;111481;1248;22677;-44
2023/10/30 07:40:22;;;;;;;7.00;6.30;;;;;;;14.52;100.00;100445.00;112209;1239;25849;-48
2023/10/30 07:42:50;;;;;;;8.50;7.60;;;;;;;14.64;100.00;100445.36;111536;1246;23894;-49
2023/10/30 07:45:20;;;;;;;8.50;6.80;;;;;;;14.78;99.82;100443.58;111694;1250;22501;-51
2023/10/30 07:52:44;;;;;;;8.90;7.50;;;;;;;15.18;97.44;100432.05;111975;1238;22564;-53
2023/10/30 07:55:50;;;;;;;7.10;6.30;;;;;;;15.34;96.41;100434.23;112198;1250;22571;-56
2023/10/30 07:59:26;;;;;;;7.50;6.40;;;;;;;15.47;94.81;100434.89;112246;1241;23394;-46
2023/10/30 08:02:24;;;;;;;9.70;6.30;;;;;;;15.62;92.28;100432.35;111975;1250;22417;-55
2023/10/30 08:05:45;;;;;;;7.60;6.80;;;;;;;15.72;91.99;100434.64;112267;1249;22552;-55
2023/10/30 08:09:12;;;;;;;8.80;5.80;;;;;;;15.87;93.19;100439.98;112000;1250;22538;-47
2023/10/30 08:11:45;;;;;;;7.90;5.70;;;;;;;15.97;93.28;100432.40;111865;1250;22430;-55
2023/10/30 08:14:11;;;;;;;10.40;6.60;;;;;;;16.01;92.60;100433.20;112430;1240;22418;-46
2023/10/30 08:16:40;;;;;;;8.40;7.00;;;;;;;16.05;93.09;100431.53;111822;1241;22646;-47
2023/10/30 08:19:20;;;;;;;8.60;5.90;;;;;;;16.13;93.29;100432.77;111860;1240;25267;-48
2023/10/30 08:22:29;;;;;;;8.60;5.20;;;;;;;16.26;92.29;100432.35;111256;1250;22616;-55
2023/10/30 08:24:56;;;;;;;9.90;5.00;;;;;;;16.31;92.26;100433.63;112146;1235;23127;-46
2023/10/30 08:27:23;;;;;;;6.90;4.80;;;;;;;16.38;92.36;100428.20;111513;1250;23483;-55
2023/10/30 08:29:52;;;;;;;7.70;5.20;;;;;;;16.48;91.95;100429.21;112559;1249;22485;-55
2023/10/30 08:32:19;;;;;;;6.80;4.00;;;;;;;16.59;90.19;100428.45;112724;1242;22409;-55
2023/10/30 08:34:46;;;;;;;5.90;4.90;;;;;;;16.68;88.89;100430.17;112154;1250;22501;-48
2023/10/30 08:37:13;;;;;;;6.40;5.10;;;;;;;16.75;87.58;100427.56;112572;1246;22374;-48
2023/10/30 08:39:41;;;;;;;8.40;4.90;;;;;;;16.82;87.73;100424.23;112469;1250;23145;-48
2023/10/30 08:43:11;;;;;;;7.60;5.70;;;;;;;16.88;86.28;100430.27;111569;1250;25285;-56
2023/10/30 08:45:45;;;;;;;7.60;4.90;;;;;;;16.93;87.47;100429.09;112423;1250;22936;-54
2023/10/30 08:48:12;;;;;;;10.50;6.90;;;;;;;17.03;85.22;100421.45;112242;1249;22598;-55
2023/10/30 08:50:43;;;;;;;10.50;7.20;;;;;;;17.16;83.59;100420.96;112764;1240;23155;-55
2023/10/30 08:53:10;;;;;;;7.90;6.30;;;;;;;17.26;82.69;100407.83;112067;1240;22397;-47
2023/10/30 08:55:38;;;;;;;5.00;3.80;;;;;;;17.35;81.53;100412.71;112789;1240;22694;-47
2023/10/30 08:58:05;;;;;;;6.20;5.20;;;;;;;17.42;80.58;100406.17;112771;1240;22424;-48
2023/10/30 09:00:32;;;;;;;4.10;2.40;;;;;;;17.47;78.65;100411.34;112498;1246;23203;-47
2023/10/30 09:02:59;;;;;;;6.40;4.60;;;;;;;17.52;78.15;100399.19;112764;1250;22370;-49
2023/10/30 09:05:27;;;;;;;11.80;4.10;;;;;;;17.65;78.53;100394.45;112296;1250;22443;-47
2023/10/30 09:07:55;;;;;;;4.20;2.30;;;;;;;17.82;77.68;100389.61;111921;1250;22491;-48
2023/10/30 09:10:30;;;;;;;9.40;4.40;;;;;;;17.97;76.01;100386.34;112725;1250;22234;-48
2023/10/30 09:12:56;;;;;;;4.30;3.50;;;;;;;18.12;74.03;100388.58;112672;1250;23056;-47
2023/10/30 09:15:24;;;;;;;3.40;1.90;;;;;;;18.24;72.20;100394.04;112723;1240;22348;-48
2023/10/30 09:17:52;;;;;;;3.80;2.00;;;;;;;18.33;71.10;100381.92;112048;1244;23331;-55
2023/10/30 09:20:20;;;;;;;4.80;1.80;;;;;;;18.41;70.71;100382.20;112755;1250;22272;-55
2023/10/30 09:22:46;;;;;;;3.40;2.20;;;;;;;18.48;69.99;100377.40;112710;1240;22407;-55
2023/10/30 09:25:13;;;;;;;4.20;1.50;;;;;;;18.56;70.42;100373.98;112145;1241;22516;-55
2023/10/30 09:27:41;;;;;;;2.80;1.10;;;;;;;18.63;70.17;100370.59;111987;1250;23276;-46
2023/10/30 09:30:09;;;;;;;3.90;1.30;;;;;;;18.66;69.97;100365.53;112515;1250;22420;-47
2023/10/30 09:32:36;;;;;;;2.60;1.60;;;;;;;18.69;70.63;100355.23;112485;1250;23182;-47
2023/10/30 09:35:21;;;;;;;3.60;1.40;;;;;;;18.78;69.60;100358.12;112296;1250;23213;-54
2023/10/30 09:37:52;;;;;;;1.60;1.50;;;;;;;18.85;69.12;100359.11;111962;1250;22409;-47
2023/10/30 09:40:23;;;;;;;3.40;1.30;;;;;;;18.93;69.52;100359.20;112065;1250;22270;-47
2023/10/30 09:43:10;;;;;;;3.40;1.50;;;;;;;19.04;68.43;100369.27;112130;1248;22705;-48
2023/10/30 09:45:46;;;;;;;3.20;1.10;;;;;;;19.12;67.62;100362.43;112518;1250;23063;-46
2023/10/30 09:48:13;;;;;;;6.60;1.30;;;;;;;19.18;68.00;100360.65;112254;1250;22367;-46
2023/10/30 09:50:41;;;;;;;5.40;2.30;;;;;;;19.29;67.69;100356.20;112418;1250;22400;-46
2023/10/30 09:53:07;;;;;;;4.50;2.10;;;;;;;19.44;67.65;100354.10;112635;1250;22231;-46
2023/10/30 09:55:41;;;;;;;4.20;1.70;;;;;;;19.58;66.92;100355.00;112458;1249;22690;-47
2023/10/30 09:58:09;;;;;;;4.90;2.10;;;;;;;19.76;66.21;100354.52;112452;1250;22419;-47
2023/10/30 10:00:36;;;;;;;2.20;1.60;;;;;;;19.97;64.83;100354.64;112475;1249;23170;-47
2023/10/30 10:03:04;;;;;;;3.30;1.40;;;;;;;20.13;63.87;100362.54;112672;1250;23179;-47
2023/10/30 10:05:52;;;;;;;1.80;1.10;;;;;;;20.24;63.33;100359.81;112669;1250;23106;-47
2023/10/30 10:08:19;;;;;;;3.60;1.40;;;;;;;20.38;63.24;100353.21;112577;1248;22376;-48
2023/10/30 10:11:00;;;;;;;3.20;1.20;;;;;;;20.54;62.52;100351.02;112613;1241;22870;-47
2023/10/30 10:13:29;;;;;;;4.90;2.10;;;;;;;20.67;62.18;100349.44;111198;1250;24183;-55
2023/10/30 10:15:57;;;;;;;4.00;2.90;;;;;;;20.69;61.79;100343.34;112320;1250;22436;-55
2023/10/30 10:18:28;;;;;;;3.20;2.70;;;;;;;20.69;61.78;100342.08;111966;1250;22800;-48
2023/10/30 10:21:00;;;;;;;3.30;1.10;;;;;;;20.75;61.56;100333.86;112865;1250;22935;-47
2023/10/30 10:23:31;;;;;;;1.60;1.20;;;;;;;20.82;60.94;100333.25;112703;1250;22804;-48
2023/10/30 10:26:03;;;;;;;4.50;2.00;;;;;;;20.82;60.04;100334.83;112669;1245;22355;-54
2023/10/30 10:28:35;;;;;;;2.60;1.20;;;;;;;20.81;59.68;100332.02;112248;1250;22388;-48
2023/10/30 10:31:04;;;;;;;3.40;1.10;;;;;;;20.81;59.28;100332.73;112330;1250;23524;-48
2023/10/30 10:33:32;;;;;;;3.60;1.40;;;;;;;20.79;58.35;100330.17;112326;1248;22448;-49
2023/10/30 10:36:02;;;;;;;5.70;1.20;;;;;;;20.75;58.33;100331.39;112355;1250;23117;-48
2023/10/30 10:38:30;;;;;;;3.60;1.20;;;;;;;20.70;58.17;100326.27;112494;1250;22162;-47
2023/10/30 10:41:03;;;;;;;1.90;0.90;;;;;;;20.67;57.79;100332.45;112619;1250;23559;-47
2023/10/30 10:43:39;;;;;;;2.10;1.40;;;;;;;20.60;57.97;100320.64;112605;1250;22525;-53
2023/10/30 10:46:33;;;;;;;3.90;1.50;;;;;;;20.54;58.18;100318.98;112017;1250;22375;-53
2023/10/30 10:49:35;;;;;;;4.10;1.60;;;;;;;20.54;58.46;100320.41;112482;1250;22829;-54
2023/10/30 10:55:50;;;;;;;2.70;1.30;;;;;;;20.57;58.46;100313.87;112223;1250;22308;-53
2023/10/30 10:58:41;;;;;;;3.70;1.20;;;;;;;20.58;58.49;100304.27;112326;1250;23399;-52
2023/10/30 11:01:09;;;;;;;2.70;2.00;;;;;;;20.59;59.08;100301.04;112557;1250;22911;-53
2023/10/30 11:03:39;;;;;;;6.30;1.50;;;;;;;20.61;59.10;100308.05;112636;1250;22546;-54
2023/10/30 11:06:08;;;;;;;2.40;1.00;;;;;;;20.56;58.29;100305.78;112372;1250;22458;-51
2023/10/30 11:08:54;;;;;;;2.60;1.20;;;;;;;20.49;58.63;100308.73;112351;1250;22363;-46
2023/10/30 11:11:55;;;;;;;4.50;1.50;;;;;;;20.41;59.57;100311.30;111478;1250;22491;-48
2023/10/30 11:14:53;;;;;;;6.80;1.60;;;;;;;20.35;59.02;100313.33;112186;1250;22430;-55
2023/10/30 11:17:20;;;;;;;2.30;1.30;;;;;;;20.31;59.74;100308.52;112807;1241;22672;-46
2023/10/30 11:19:47;;;;;;;3.00;1.10;;;;;;;20.31;59.92;100313.30;112714;1250;22370;-46
2023/10/30 11:22:37;;;;;;;2.20;1.20;;;;;;;20.28;59.32;100313.60;112375;1250;22837;-46
2023/10/30 11:25:41;;;;;;;2.30;1.10;;;;;;;20.16;59.31;100318.48;111933;1236;23428;-47
2023/10/30 11:28:49;;;;;;;5.00;1.10;;;;;;;20.03;59.91;100318.29;112336;1250;22918;-57
2023/10/30 11:31:17;;;;;;;2.60;1.10;;;;;;;19.89;60.68;100313.85;112384;1250;23237;-56
2023/10/30 11:33:44;;;;;;;3.10;0.90;;;;;;;19.81;61.39;100310.45;112292;1244;23293;-56
2023/10/30 11:36:16;;;;;;;3.80;1.10;;;;;;;19.75;61.67;100308.76;112504;1247;22899;-57
2023/10/30 11:38:57;;;;;;;4.30;1.10;;;;;;;19.71;62.18;100303.96;112545;1249;22710;-54
2023/10/30 11:46:00;;;;;;;4.10;1.20;;;;;;;19.66;61.74;100296.35;112661;1238;22343;-54
2023/10/30 11:48:28;;;;;;;5.20;1.50;;;;;;;19.64;61.40;100296.93;112651;1238;23319;-54
2023/10/30 11:50:54;;;;;;;2.70;1.40;;;;;;;19.64;61.87;100293.95;112218;1250;23634;-54
2023/10/30 11:53:21;;;;;;;4.10;1.40;;;;;;;19.64;61.76;100288.08;112208;1250;23516;-54
2023/10/30 11:55:48;;;;;;;4.60;1.30;;;;;;;19.67;60.81;100291.90;112348;1250;22363;-54
2023/10/30 11:58:15;;;;;;;3.90;1.20;;;;;;;19.69;60.80;100281.20;112377;1250;22416;-54
2023/10/30 12:00:46;;;;;;;3.80;1.30;;;;;;;19.72;60.71;100278.79;112626;1247;22381;-54
2023/10/30 12:03:14;;;;;;;3.40;1.60;;;;;;;19.76;60.46;100275.98;112769;1250;22427;-54
2023/10/30 12:05:40;;;;;;;3.80;1.70;;;;;;;19.78;60.20;100276.11;112843;1241;22418;-54
2023/10/30 12:08:09;;;;;;;4.60;1.90;;;;;;;19.78;60.11;100267.08;112118;1238;22467;-53
2023/10/30 12:10:39;;;;;;;5.00;1.70;;;;;;;19.79;59.98;100266.86;112771;1241;22469;-52
2023/10/30 12:13:08;;;;;;;3.90;2.40;;;;;;;19.80;59.49;100261.49;112727;1241;22253;-52
2023/10/30 12:15:35;;;;;;;8.30;3.20;;;;;;;19.86;59.58;100257.89;112025;1250;22494;-52
2023/10/30 12:18:04;;;;;;;5.20;2.70;;;;;;;19.96;59.28;100260.85;112688;1250;22245;-52
2023/10/30 12:20:33;;;;;;;8.90;4.40;;;;;;;20.08;58.94;100261.81;112595;1250;22480;-45
2023/10/30 12:23:00;;;;;;;5.50;3.70;;;;;;;20.22;58.63;100257.36;112685;1250;22404;-46
2023/10/30 12:25:27;;;;;;;4.50;2.90;;;;;;;20.42;58.39;100255.48;112643;1250;23253;-46
2023/10/30 12:28:01;;;;;;;5.80;2.70;;;;;;;20.61;57.14;100254.17;112603;1250;22405;-45
2023/10/30 12:30:33;;;;;;;7.60;2.90;;;;;;;20.71;57.07;100250.73;112432;1247;23323;-46
2023/10/30 12:33:01;;;;;;;9.00;3.40;;;;;;;20.80;56.64;100241.13;112056;1250;23058;-47
2023/10/30 12:35:29;;;;;;;6.60;4.20;;;;;;;20.93;56.31;100237.73;112611;1248;22388;-45
2023/10/30 12:37:55;;;;;;;5.60;4.50;;;;;;;21.08;55.72;100238.87;112415;1250;22947;-45
2023/10/30 12:40:22;;;;;;;6.30;5.30;;;;;;;21.19;55.67;100231.83;112533;1250;22231;-46
2023/10/30 12:42:49;;;;;;;7.20;5.40;;;;;;;21.32;55.00;100231.24;112709;1250;22380;-45
2023/10/30 12:45:18;;;;;;;9.10;4.40;;;;;;;21.38;54.66;100232.20;112751;1250;22362;-46
2023/10/30 12:47:48;;;;;;;6.40;5.10;;;;;;;21.41;54.34;100227.11;112699;1250;23128;-45
2023/10/30 12:50:15;;;;;;;7.60;6.20;;;;;;;21.52;54.60;100228.05;112768;1247;22383;-47
2023/10/30 12:52:42;;;;;;;7.00;5.60;;;;;;;21.54;54.16;100222.64;112792;1250;23235;-46
2023/10/30 12:55:10;;;;;;;7.00;5.80;;;;;;;21.43;53.37;100223.16;112714;1240;22347;-53
2023/10/30 12:57:37;;;;;;;9.50;4.00;;;;;;;21.27;52.90;100220.13;112572;1250;22571;-53
2023/10/30 13:00:07;;;;;;;6.00;3.30;;;;;;;21.11;52.57;100217.63;112147;1250;24068;-52
2023/10/30 13:02:35;;;;;;;5.70;3.20;;;;;;;20.93;52.51;100212.06;112273;1249;22427;-46
2023/10/30 13:05:03;;;;;;;6.60;3.50;;;;;;;20.75;53.00;100212.48;111102;1235;22263;-46
2023/10/30 13:07:32;;;;;;;9.70;3.60;;;;;;;20.58;53.66;100218.34;112417;1247;22560;-46
2023/10/30 13:10:03;;;;;;;11.40;4.40;;;;;;;20.42;53.96;100217.05;112336;1250;22446;-47
2023/10/30 13:12:31;;;;;;;8.40;5.40;;;;;;;20.27;54.60;100218.91;112676;1244;22474;-47
2023/10/30 13:14:59;;;;;;;9.40;3.90;;;;;;;20.13;55.17;100210.43;112683;1246;22248;-54
2023/10/30 13:17:30;;;;;;;7.40;3.60;;;;;;;20.00;55.70;100204.98;112437;1250;22406;-47
2023/10/30 13:20:06;;;;;;;4.50;2.90;;;;;;;19.84;56.21;100209.30;112086;1249;23173;-53
2023/10/30 13:22:36;;;;;;;9.40;3.40;;;;;;;19.72;55.92;100208.19;112053;1250;22506;-49
2023/10/30 13:25:06;;;;;;;6.80;3.40;;;;;;;19.66;56.02;100207.53;112780;1240;22928;-47
2023/10/30 13:27:34;;;;;;;7.50;3.90;;;;;;;19.63;56.00;100200.92;112800;1247;22342;-54
2023/10/30 13:30:03;;;;;;;5.90;2.80;;;;;;;19.58;56.27;100201.11;112650;1241;22781;-53
2023/10/30 13:32:32;;;;;;;10.20;3.40;;;;;;;19.49;56.52;100206.22;112755;1247;22208;-53
2023/10/30 13:35:00;;;;;;;12.70;3.40;;;;;;;19.38;56.52;100199.90;112580;1236;22482;-53
2023/10/30 13:37:26;;;;;;;9.80;3.70;;;;;;;19.27;56.46;100194.14;112806;1239;22430;-53
2023/10/30 13:39:53;;;;;;;6.50;2.90;;;;;;;19.16;56.70;100191.72;112526;1241;22408;-53
2023/10/30 13:42:20;;;;;;;5.90;3.20;;;;;;;19.04;57.12;100191.11;112760;1247;22862;-46
2023/10/30 13:44:47;;;;;;;12.70;4.40;;;;;;;18.92;57.40;100190.30;112816;1236;23046;-53
2023/10/30 13:47:15;;;;;;;6.00;3.10;;;;;;;18.78;57.73;100190.42;112676;1250;22387;-53
2023/10/30 13:49:42;;;;;;;5.90;2.60;;;;;;;18.65;58.05;100188.75;112708;1241;22302;-47
2023/10/30 13:52:09;;;;;;;5.80;2.20;;;;;;;18.52;58.66;100189.36;112666;1250;22538;-49
2023/10/30 13:54:36;;;;;;;4.40;1.90;;;;;;;18.40;59.26;100191.38;112142;1240;22974;-45
2023/10/30 13:57:03;;;;;;;3.30;1.80;;;;;;;18.26;59.72;100186.52;112781;1250;23551;-46
2023/10/30 13:59:30;;;;;;;4.50;2.10;;;;;;;18.15;60.28;100184.60;112772;1250;22366;-45
2023/10/30 14:01:57;;;;;;;6.10;1.70;;;;;;;18.03;60.73;100185.52;112685;1249;164310;-52
2023/10/30 14:04:23;;;;;;;4.90;2.00;;;;;;;17.92;61.33;100189.75;111826;1250;25417;-47
2023/10/30 14:06:50;;;;;;;6.60;2.20;;;;;;;17.83;61.55;100187.06;112399;1243;25314;-54
2023/10/30 14:09:18;;;;;;;5.60;2.00;;;;;;;17.74;61.84;100190.66;112894;1246;23050;-48
